Time;durP1;ratioP1;P1;durP2;ratioP2;P2;SDS_P1;SDS_P2;PMS_P1;PMS_P2;Temp;Humidity;BMP_temperature;BMP_pressure;BME280_temperature;BME280_humidity;BME280_pressure;Samples;Min_cycle;Max_cycle;Signal;HPM_P1;HPM_P2
2023/06/10 00:01:47;;;;;;;0.20;0.20;;;17.60;91.20;;;;;;4836715;29;20128;-90
2023/06/10 00:04:14;;;;;;;0.20;0.20;;;17.50;91.10;;;;;;4835644;29;20486;-91
2023/06/10 00:06:40;;;;;;;0.20;0.20;;;17.50;91.10;;;;;;4859143;29;20483;-89
2023/06/10 00:09:10;;;;;;;0.20;0.20;;;17.50;91.20;;;;;;4842459;29;20539;-87
2023/06/10 00:11:39;;;;;;;0.20;0.20;;;17.40;91.20;;;;;;4849683;29;20050;-89
2023/06/10 00:14:05;;;;;;;0.20;0.20;;;17.40;91.20;;;;;;4844053;29;20757;-89
2023/06/10 00:16:30;;;;;;;0.17;0.17;;;17.40;91.30;;;;;;4855866;29;20129;-90
2023/06/10 00:19:00;;;;;;;0.20;0.20;;;16.90;91.20;;;;;;4860715;29;20053;-90
2023/06/10 00:21:36;;;;;;;0.20;0.20;;;17.30;91.30;;;;;;4839042;29;20125;-89
2023/06/10 00:24:06;;;;;;;0.17;0.17;;;17.30;91.40;;;;;;4839883;29;20465;-90
2023/06/10 00:26:33;;;;;;;0.20;0.20;;;17.30;91.40;;;;;;4848535;29;20041;-91
2023/06/10 00:28:59;;;;;;;0.15;0.15;;;17.20;91.40;;;;;;4863292;29;20049;-91
2023/06/10 00:31:28;;;;;;;0.20;0.20;;;17.20;91.40;;;;;;4834681;29;20056;-89
2023/06/10 00:33:54;;;;;;;0.20;0.20;;;17.10;91.40;;;;;;4844322;29;20045;-91
2023/06/10 00:36:19;;;;;;;0.17;0.17;;;17.10;91.50;;;;;;4861847;29;20076;-90
2023/06/10 00:38:45;;;;;;;0.20;0.20;;;17.00;91.50;;;;;;4841633;29;20049;-90
2023/06/10 00:41:11;;;;;;;0.20;0.20;;;17.00;91.50;;;;;;4865495;29;20124;-90
2023/06/10 00:43:36;;;;;;;0.20;0.20;;;17.00;91.60;;;;;;4849248;29;20129;-90
2023/06/10 00:46:02;;;;;;;0.20;0.20;;;17.00;91.70;;;;;;4845517;29;20573;-89
2023/06/10 00:48:28;;;;;;;0.20;0.20;;;17.00;91.70;;;;;;4842300;29;20042;-90
2023/06/10 00:50:54;;;;;;;0.22;0.22;;;17.00;91.70;;;;;;4848760;29;20073;-89
2023/06/10 00:53:22;;;;;;;0.20;0.20;;;16.90;91.70;;;;;;4850014;29;20045;-91
2023/06/10 00:55:48;;;;;;;0.10;0.10;;;16.90;91.80;;;;;;4857594;29;20045;-90
2023/06/10 00:58:15;;;;;;;0.20;0.20;;;16.90;91.80;;;;;;4861211;29;20101;-90
2023/06/10 01:00:41;;;;;;;0.20;0.20;;;16.80;91.80;;;;;;4837854;29;20065;-89
2023/06/10 01:03:10;;;;;;;0.20;0.20;;;16.80;91.80;;;;;;4851494;29;20045;-91
2023/06/10 01:05:36;;;;;;;0.20;0.20;;;16.80;91.80;;;;;;4859244;29;20123;-91
2023/06/10 01:08:33;;;;;;;0.20;0.20;;;16.70;91.80;;;;;;4843078;29;20088;-93
2023/06/10 01:11:01;;;;;;;0.20;0.20;;;16.70;91.80;;;;;;4845768;29;20823;-89
2023/06/10 01:13:29;;;;;;;0.20;0.20;;;16.70;91.80;;;;;;4847602;29;20140;-90
2023/06/10 01:15:56;;;;;;;0.20;0.20;;;16.70;91.80;;;;;;4855993;29;20054;-89
2023/06/10 01:18:22;;;;;;;0.20;0.20;;;16.60;91.80;;;;;;4841053;29;20037;-89
2023/06/10 01:20:48;;;;;;;0.20;0.20;;;16.70;91.80;;;;;;4855430;29;20101;-89
2023/06/10 01:23:15;;;;;;;0.20;0.20;;;16.60;92.10;;;;;;4854391;29;20088;-91
2023/06/10 01:26:02;;;;;;;0.20;0.20;;;16.50;91.80;;;;;;4841140;29;20046;-86
2023/06/10 01:28:37;;;;;;;0.10;0.10;;;16.50;91.80;;;;;;4835902;29;20053;-89
2023/06/10 01:31:40;;;;;;;0.20;0.20;;;16.40;91.80;;;;;;4861449;29;20045;-89
2023/06/10 01:34:10;;;;;;;0.20;0.20;;;16.50;91.80;;;;;;4837374;29;20509;-89
2023/06/10 01:36:37;;;;;;;0.20;0.20;;;16.40;91.80;;;;;;4845314;29;20050;-90
2023/06/10 01:39:05;;;;;;;0.30;0.30;;;16.40;91.80;;;;;;4831487;29;20084;-90
2023/06/10 01:41:32;;;;;;;0.20;0.20;;;16.40;91.80;;;;;;4845048;29;20048;-88
2023/06/10 01:43:57;;;;;;;0.20;0.20;;;16.30;91.80;;;;;;4844541;29;20125;-91
2023/06/10 01:46:23;;;;;;;0.20;0.20;;;16.30;91.90;;;;;;4861745;29;20042;-91
2023/06/10 01:48:49;;;;;;;0.20;0.20;;;16.30;91.90;;;;;;4861714;29;20045;-89
2023/06/10 01:51:15;;;;;;;0.20;0.20;;;16.30;92.00;;;;;;4860124;29;20398;-89
2023/06/10 01:53:40;;;;;;;0.17;0.17;;;16.20;92.00;;;;;;4843359;29;20042;-91
2023/06/10 01:56:06;;;;;;;0.20;0.20;;;16.20;92.00;;;;;;4854864;29;20471;-91
2023/06/10 01:58:32;;;;;;;0.20;0.20;;;16.20;92.00;;;;;;4840750;29;20046;-91
2023/06/10 02:00:58;;;;;;;0.20;0.20;;;16.20;92.10;;;;;;4858271;29;20045;-91
2023/06/10 02:03:23;;;;;;;0.20;0.20;;;16.10;92.10;;;;;;4861400;29;20506;-90
2023/06/10 02:05:49;;;;;;;0.10;0.10;;;16.10;92.20;;;;;;4857752;29;20114;-88
2023/06/10 02:08:15;;;;;;;0.20;0.20;;;16.10;92.30;;;;;;4847742;29;20050;-88
2023/06/10 02:10:41;;;;;;;0.20;0.20;;;16.00;92.20;;;;;;4836967;29;20052;-90
2023/06/10 02:13:07;;;;;;;0.20;0.20;;;16.00;92.20;;;;;;4855926;29;20088;-89
2023/06/10 02:15:33;;;;;;;0.20;0.20;;;17.10;92.60;;;;;;4858245;29;20171;-89
2023/06/10 02:17:59;;;;;;;0.25;0.25;;;16.00;92.30;;;;;;4853044;29;20103;-88
2023/06/10 02:20:25;;;;;;;0.20;0.20;;;15.90;92.40;;;;;;4839101;29;20057;-89
2023/06/10 02:22:51;;;;;;;0.13;0.13;;;16.00;92.50;;;;;;4856293;29;20057;-88
2023/06/10 02:25:17;;;;;;;0.20;0.20;;;15.90;92.50;;;;;;4840127;29;20049;-88
2023/06/10 02:27:43;;;;;;;0.20;0.20;;;15.80;92.50;;;;;;4852752;29;20052;-89
2023/06/10 02:30:15;;;;;;;0.20;0.20;;;15.80;92.60;;;;;;4837335;29;20050;-88
2023/06/10 02:32:41;;;;;;;0.20;0.20;;;15.80;92.70;;;;;;4834846;29;20061;-88
2023/06/10 02:35:07;;;;;;;0.20;0.20;;;15.80;92.80;;;;;;4848206;29;20088;-88
2023/06/10 02:37:32;;;;;;;0.20;0.20;;;15.70;92.90;;;;;;4847470;29;20136;-87
2023/06/10 02:39:58;;;;;;;0.30;0.30;;;15.70;93.00;;;;;;4860245;29;20054;-88
2023/06/10 02:42:24;;;;;;;0.20;0.20;;;15.70;93.00;;;;;;4843620;29;20414;-87
2023/06/10 02:44:49;;;;;;;0.20;0.20;;;15.60;93.10;;;;;;4858893;29;20069;-87
2023/06/10 02:47:15;;;;;;;0.20;0.20;;;15.60;93.20;;;;;;4856866;29;20045;-87
2023/06/10 02:49:41;;;;;;;0.20;0.20;;;15.60;93.30;;;;;;4836170;29;20049;-88
2023/06/10 02:52:08;;;;;;;0.20;0.20;;;15.60;93.40;;;;;;4839921;29;20049;-88
2023/06/10 02:54:33;;;;;;;0.20;0.20;;;15.60;93.50;;;;;;4840826;29;20053;-88
2023/06/10 02:56:59;;;;;;;0.20;0.20;;;15.50;93.60;;;;;;4854535;29;20450;-89
2023/06/10 02:59:28;;;;;;;0.20;0.20;;;15.50;93.70;;;;;;4858536;29;20049;-90
2023/06/10 03:01:54;;;;;;;0.20;0.20;;;15.50;93.80;;;;;;4860835;29;20156;-88
2023/06/10 03:04:20;;;;;;;0.20;0.20;;;15.40;93.90;;;;;;4846232;29;20120;-90
2023/06/10 03:06:46;;;;;;;0.20;0.20;;;15.40;94.00;;;;;;4845214;29;20077;-88
2023/06/10 03:09:13;;;;;;;0.20;0.20;;;15.40;94.10;;;;;;4860928;29;20041;-89
2023/06/10 03:11:39;;;;;;;0.20;0.20;;;15.30;94.30;;;;;;4860582;29;20049;-90
2023/06/10 03:14:05;;;;;;;0.20;0.20;;;15.30;94.50;;;;;;4863436;29;20100;-90
2023/06/10 03:16:33;;;;;;;0.20;0.20;;;15.30;94.50;;;;;;4856768;29;20045;-88
2023/06/10 03:18:59;;;;;;;0.20;0.20;;;15.30;94.70;;;;;;4842021;29;20060;-90
2023/06/10 03:21:25;;;;;;;0.20;0.20;;;16.00;95.00;;;;;;4843554;29;20041;-90
2023/06/10 03:23:51;;;;;;;0.10;0.10;;;15.30;94.90;;;;;;4845666;29;20053;-88
2023/06/10 03:26:17;;;;;;;0.20;0.20;;;15.20;95.10;;;;;;4830372;29;20149;-88
2023/06/10 03:28:42;;;;;;;0.15;0.15;;;15.20;95.20;;;;;;4842588;29;20080;-90
2023/06/10 03:31:08;;;;;;;0.20;0.20;;;15.20;95.40;;;;;;4829871;29;20045;-90
2023/06/10 03:33:34;;;;;;;0.20;0.20;;;15.10;95.50;;;;;;4832759;29;20037;-89
2023/06/10 03:35:59;;;;;;;0.20;0.20;;;15.10;95.70;;;;;;4856224;29;20041;-88
2023/06/10 03:38:25;;;;;;;0.20;0.20;;;15.10;96.10;;;;;;4844479;29;20102;-87
2023/06/10 03:40:51;;;;;;;0.20;0.20;;;15.10;96.00;;;;;;4841218;29;20493;-89
2023/06/10 03:43:17;;;;;;;0.20;0.20;;;15.10;96.10;;;;;;4840641;29;20080;-89
2023/06/10 03:45:42;;;;;;;0.20;0.20;;;15.00;96.30;;;;;;4841551;29;20515;-87
2023/06/10 03:48:09;;;;;;;0.20;0.20;;;15.20;96.50;;;;;;4857601;29;20060;-90
2023/06/10 03:50:36;;;;;;;0.20;0.20;;;15.00;96.60;;;;;;4842843;29;20086;-88
2023/06/10 03:53:02;;;;;;;0.20;0.20;;;15.10;96.90;;;;;;4841830;29;20101;-88
2023/06/10 03:55:28;;;;;;;0.20;0.20;;;15.10;97.00;;;;;;4841812;29;20060;-88
2023/06/10 03:57:53;;;;;;;0.20;0.20;;;15.00;97.50;;;;;;4839345;29;20057;-88
2023/06/10 04:00:21;;;;;;;0.20;0.20;;;15.00;97.40;;;;;;4839457;29;20045;-90
2023/06/10 04:02:53;;;;;;;0.20;0.20;;;15.00;97.60;;;;;;4836313;29;20064;-89
2023/06/10 04:05:22;;;;;;;0.20;0.20;;;14.40;97.60;;;;;;4836231;29;20056;-90
2023/06/10 04:07:48;;;;;;;0.20;0.20;;;15.10;97.90;;;;;;4841145;29;20038;-89
2023/06/10 04:10:14;;;;;;;0.20;0.20;;;15.00;98.00;;;;;;4837219;29;20052;-87
2023/06/10 04:12:41;;;;;;;0.20;0.20;;;15.00;98.10;;;;;;4835956;29;20302;-88
2023/06/10 04:15:07;;;;;;;0.20;0.20;;;15.10;98.30;;;;;;4834827;29;20076;-88
2023/06/10 04:17:33;;;;;;;0.20;0.20;;;15.00;98.40;;;;;;4840107;29;20092;-89
2023/06/10 04:20:01;;;;;;;0.20;0.20;;;15.10;98.60;;;;;;4835650;29;20086;-87
2023/06/10 04:22:26;;;;;;;0.20;0.20;;;15.10;98.70;;;;;;4842662;29;20502;-89
2023/06/10 04:24:53;;;;;;;0.30;0.30;;;15.10;98.70;;;;;;4856537;29;20090;-88
2023/06/10 04:27:19;;;;;;;0.20;0.20;;;15.10;98.90;;;;;;4843304;29;20083;-87
2023/06/10 04:29:44;;;;;;;0.20;0.20;;;15.10;99.00;;;;;;4842197;29;20069;-88
2023/06/10 04:32:10;;;;;;;0.20;0.20;;;15.10;99.20;;;;;;4830324;29;20136;-89
2023/06/10 04:34:38;;;;;;;0.10;0.10;;;15.10;99.40;;;;;;4841420;29;20064;-88
2023/06/10 04:37:05;;;;;;;0.20;0.20;;;15.10;99.60;;;;;;4842941;29;20042;-89
2023/06/10 04:39:30;;;;;;;0.20;0.20;;;15.10;99.90;;;;;;4828779;29;20398;-89
2023/06/10 04:41:56;;;;;;;0.20;0.20;;;15.10;99.90;;;;;;4857350;29;20038;-88
2023/06/10 04:44:22;;;;;;;0.20;0.20;;;15.30;99.90;;;;;;4853806;29;20077;-88
2023/06/10 04:46:47;;;;;;;0.20;0.20;;;15.00;99.90;;;;;;4854272;29;20041;-87
2023/06/10 04:49:16;;;;;;;0.20;0.20;;;15.20;99.90;;;;;;4841209;29;20092;-89
2023/06/10 04:51:41;;;;;;;0.20;0.20;;;15.30;99.90;;;;;;4842751;29;20045;-88
2023/06/10 04:54:07;;;;;;;0.20;0.20;;;15.30;99.90;;;;;;4844697;29;20057;-88
2023/06/10 04:56:33;;;;;;;0.20;0.20;;;15.30;99.90;;;;;;4833099;29;20132;-90
2023/06/10 04:59:00;;;;;;;0.20;0.20;;;15.30;99.90;;;;;;4861369;29;20057;-88
2023/06/10 05:01:25;;;;;;;0.20;0.20;;;15.40;99.90;;;;;;4856409;29;20037;-89
2023/06/10 05:03:54;;;;;;;0.20;0.20;;;15.40;99.90;;;;;;4835577;29;20046;-89
2023/06/10 05:06:19;;;;;;;0.20;0.20;;;15.60;99.90;;;;;;4834368;29;20056;-90
2023/06/10 05:08:45;;;;;;;0.20;0.20;;;15.50;99.90;;;;;;4862341;29;20057;-87
2023/06/10 05:11:11;;;;;;;0.20;0.20;;;15.50;99.90;;;;;;4859817;29;20132;-88
2023/06/10 05:13:36;;;;;;;0.30;0.30;;;15.60;99.90;;;;;;4838917;29;20096;-87
2023/06/10 05:16:03;;;;;;;0.20;0.20;;;15.60;99.90;;;;;;4860461;29;20414;-88
2023/06/10 05:18:29;;;;;;;0.20;0.20;;;15.70;99.90;;;;;;4859620;29;20561;-89
2023/06/10 05:20:55;;;;;;;0.20;0.20;;;15.70;99.90;;;;;;4845038;29;20101;-88
2023/06/10 05:23:21;;;;;;;0.20;0.20;;;15.80;99.90;;;;;;4862331;29;20049;-89
2023/06/10 05:25:47;;;;;;;0.20;0.20;;;15.80;99.90;;;;;;4852302;29;20083;-88
2023/06/10 05:28:13;;;;;;;0.20;0.20;;;15.80;99.90;;;;;;4837879;29;20057;-87
2023/06/10 05:30:39;;;;;;;0.20;0.20;;;15.90;99.90;;;;;;4855810;29;20046;-88
2023/06/10 05:33:05;;;;;;;0.20;0.20;;;15.90;99.90;;;;;;4834955;29;20056;-87
2023/06/10 05:35:31;;;;;;;0.10;0.10;;;16.00;99.90;;;;;;4844318;29;20042;-90
2023/06/10 05:37:56;;;;;;;0.20;0.20;;;16.00;99.90;;;;;;4853490;29;20054;-89
2023/06/10 05:40:22;;;;;;;0.20;0.20;;;16.10;99.90;;;;;;4841374;29;20041;-88
2023/06/10 05:42:48;;;;;;;0.20;0.20;;;16.10;99.90;;;;;;4840665;29;20056;-89
2023/06/10 05:45:14;;;;;;;0.20;0.20;;;16.10;99.90;;;;;;4854484;29;20495;-88
2023/06/10 05:47:40;;;;;;;0.20;0.20;;;16.20;99.90;;;;;;4835349;29;20053;-86
2023/06/10 05:50:10;;;;;;;0.20;0.20;;;16.20;99.90;;;;;;4853168;29;20056;-89
2023/06/10 05:52:36;;;;;;;0.10;0.10;;;16.20;99.90;;;;;;4835897;29;20312;-87
2023/06/10 05:55:03;;;;;;;0.20;0.20;;;16.30;99.90;;;;;;4844483;29;20037;-85
2023/06/10 05:57:29;;;;;;;0.20;0.20;;;16.30;99.90;;;;;;4860724;29;20053;-87
2023/06/10 05:59:54;;;;;;;0.20;0.20;;;16.40;99.90;;;;;;4842584;29;20050;-88
2023/06/10 06:02:20;;;;;;;0.20;0.20;;;16.40;99.90;;;;;;4843319;29;20434;-86
2023/06/10 06:07:44;;;;;;;0.20;0.20;;;16.50;99.90;;;;;;4841743;29;20052;-88
2023/06/10 06:10:17;;;;;;;0.20;0.20;;;16.50;99.90;;;;;;4835436;29;21915;-87
2023/06/10 06:12:43;;;;;;;0.20;0.20;;;16.60;99.90;;;;;;4859231;29;20048;-88
2023/06/10 06:15:10;;;;;;;0.20;0.20;;;16.60;99.90;;;;;;4831703;29;20061;-87
2023/06/10 06:17:39;;;;;;;0.20;0.20;;;16.60;99.90;;;;;;4859429;29;20055;-88
2023/06/10 06:20:05;;;;;;;0.20;0.20;;;16.70;99.90;;;;;;4853060;29;20060;-90
2023/06/10 06:22:31;;;;;;;0.20;0.20;;;16.80;99.90;;;;;;4844023;29;20371;-87
2023/06/10 06:24:57;;;;;;;0.20;0.20;;;16.00;99.90;;;;;;4859694;29;20049;-87
2023/06/10 06:27:22;;;;;;;0.20;0.20;;;16.90;99.90;;;;;;4847774;29;20041;-90
2023/06/10 06:29:48;;;;;;;0.20;0.20;;;16.90;99.90;;;;;;4850255;29;20129;-77
2023/06/10 06:32:14;;;;;;;0.20;0.20;;;17.00;99.90;;;;;;4850938;29;20045;-78
2023/06/10 06:34:39;;;;;;;0.20;0.20;;;17.00;99.90;;;;;;4826765;29;20046;-78
2023/06/10 06:37:05;;;;;;;0.20;0.20;;;17.10;99.90;;;;;;4839039;29;20057;-77
2023/06/10 06:39:31;;;;;;;0.20;0.20;;;17.10;99.90;;;;;;4836701;29;20040;-77
2023/06/10 06:41:57;;;;;;;0.20;0.20;;;17.10;99.90;;;;;;4837776;29;20054;-77
2023/06/10 06:44:22;;;;;;;0.20;0.20;;;17.10;99.90;;;;;;4855358;29;20561;-78
2023/06/10 06:46:48;;;;;;;0.20;0.20;;;17.20;99.90;;;;;;4838688;29;20053;-78
2023/06/10 06:49:14;;;;;;;0.20;0.20;;;17.30;99.90;;;;;;4836373;29;21015;-77
2023/06/10 06:51:39;;;;;;;0.20;0.20;;;17.30;99.90;;;;;;4838566;29;20046;-77
2023/06/10 06:54:05;;;;;;;0.20;0.20;;;17.30;99.90;;;;;;4836337;29;20069;-77
2023/06/10 06:56:31;;;;;;;0.20;0.20;;;17.40;99.90;;;;;;4833052;29;20542;-78
2023/06/10 06:58:57;;;;;;;0.20;0.20;;;17.40;99.90;;;;;;4856821;29;20077;-77
2023/06/10 07:01:22;;;;;;;0.20;0.20;;;17.40;99.90;;;;;;4840583;29;20512;-77
2023/06/10 07:03:48;;;;;;;0.20;0.20;;;17.50;99.90;;;;;;4838095;29;20057;-78
2023/06/10 07:06:14;;;;;;;0.20;0.20;;;17.60;99.90;;;;;;4856253;29;20046;-77
2023/06/10 07:08:39;;;;;;;0.20;0.20;;;17.60;99.90;;;;;;4838797;29;20045;-78
2023/06/10 07:11:05;;;;;;;0.20;0.20;;;17.70;99.90;;;;;;4840179;29;20046;-78
2023/06/10 07:13:31;;;;;;;0.20;0.20;;;17.70;99.90;;;;;;4841718;29;20065;-78
2023/06/10 07:15:56;;;;;;;0.20;0.20;;;17.80;99.90;;;;;;4856889;29;20038;-77
2023/06/10 07:18:22;;;;;;;0.20;0.20;;;17.90;99.90;;;;;;4850560;29;20056;-77
2023/06/10 07:20:48;;;;;;;0.20;0.20;;;17.90;99.90;;;;;;4836260;29;20053;-77
2023/06/10 07:23:13;;;;;;;0.20;0.20;;;17.90;99.90;;;;;;4836933;29;20043;-77
2023/06/10 07:25:41;;;;;;;0.20;0.20;;;17.90;99.90;;;;;;4839010;29;20037;-78
2023/06/10 07:28:07;;;;;;;0.20;0.20;;;18.00;99.90;;;;;;4836341;29;20057;-78
2023/06/10 07:30:33;;;;;;;0.20;0.20;;;18.00;99.90;;;;;;4841074;29;20140;-77
2023/06/10 07:32:58;;;;;;;0.20;0.20;;;18.00;99.90;;;;;;4832644;29;20491;-78
2023/06/10 07:35:25;;;;;;;0.20;0.20;;;18.10;99.90;;;;;;4840824;29;20148;-78
2023/06/10 07:37:51;;;;;;;0.20;0.20;;;18.20;99.90;;;;;;4840711;29;20088;-78
2023/06/10 07:40:17;;;;;;;0.20;0.20;;;18.20;99.90;;;;;;4857849;29;20093;-78
2023/06/10 07:42:43;;;;;;;0.30;0.30;;;18.30;99.90;;;;;;4836816;29;20110;-77
2023/06/10 07:45:09;;;;;;;0.20;0.20;;;18.30;99.90;;;;;;4834426;29;20060;-78
2023/06/10 07:47:35;;;;;;;0.20;0.20;;;18.40;99.90;;;;;;4840848;29;20049;-78
2023/06/10 07:50:00;;;;;;;0.20;0.20;;;18.40;99.90;;;;;;4856307;29;20056;-78
2023/06/10 07:52:26;;;;;;;0.20;0.20;;;18.40;99.90;;;;;;4854066;29;20064;-78
2023/06/10 07:54:52;;;;;;;0.20;0.20;;;18.50;99.90;;;;;;4827123;29;20050;-78
2023/06/10 07:57:18;;;;;;;0.20;0.20;;;18.50;99.90;;;;;;4839610;29;20052;-78
2023/06/10 07:59:44;;;;;;;0.20;0.20;;;18.50;99.90;;;;;;4833833;29;20042;-78
2023/06/10 08:02:10;;;;;;;0.20;0.20;;;18.60;99.90;;;;;;4851718;29;20045;-78
2023/06/10 08:04:36;;;;;;;0.20;0.20;;;18.60;99.90;;;;;;4838498;29;20144;-78
2023/06/10 08:07:02;;;;;;;0.20;0.20;;;18.70;99.90;;;;;;4838940;29;20049;-78
2023/06/10 08:09:28;;;;;;;0.20;0.20;;;18.70;99.90;;;;;;4857556;29;20053;-77
2023/06/10 08:11:53;;;;;;;0.20;0.20;;;18.80;99.90;;;;;;4837840;29;20041;-77
2023/06/10 08:14:19;;;;;;;0.20;0.20;;;18.80;99.90;;;;;;4835637;29;20108;-77
2023/06/10 08:16:45;;;;;;;0.20;0.20;;;18.90;99.90;;;;;;4838748;29;20120;-77
2023/06/10 08:19:11;;;;;;;0.20;0.20;;;18.90;99.90;;;;;;4838984;29;20053;-77
2023/06/10 08:21:39;;;;;;;0.20;0.20;;;19.00;99.90;;;;;;4854148;29;20049;-76
2023/06/10 08:24:09;;;;;;;0.13;0.13;;;19.00;99.90;;;;;;4830826;29;20111;-78
2023/06/10 08:26:34;;;;;;;0.20;0.20;;;19.10;99.90;;;;;;4839419;29;20055;-78
2023/06/10 08:29:00;;;;;;;0.20;0.20;;;19.10;99.90;;;;;;4839209;29;20045;-78
2023/06/10 08:31:26;;;;;;;0.20;0.20;;;19.20;99.90;;;;;;4861333;29;20037;-78
2023/06/10 08:33:51;;;;;;;0.20;0.20;;;19.20;99.90;;;;;;4857820;29;20049;-77
2023/06/10 08:36:17;;;;;;;0.20;0.20;;;19.30;99.90;;;;;;4857477;29;20045;-77
2023/06/10 08:38:43;;;;;;;0.20;0.20;;;19.30;99.90;;;;;;4843646;29;20056;-77
2023/06/10 08:41:13;;;;;;;0.20;0.20;;;19.40;99.90;;;;;;4857755;29;20049;-78
2023/06/10 08:44:05;;;;;;;0.20;0.20;;;19.40;99.90;;;;;;4841753;29;20057;-77
2023/06/10 08:46:32;;;;;;;0.20;0.20;;;19.50;99.90;;;;;;4844731;29;20470;-77
2023/06/10 08:49:02;;;;;;;0.20;0.20;;;19.60;99.90;;;;;;4829801;29;20049;-78
2023/06/10 08:51:30;;;;;;;0.20;0.20;;;19.60;99.90;;;;;;4857306;29;20073;-77
2023/06/10 08:54:11;;;;;;;0.20;0.20;;;19.60;99.90;;;;;;4831386;29;20053;-78
2023/06/10 08:56:39;;;;;;;0.20;0.20;;;19.70;99.90;;;;;;4837486;29;20493;-78
2023/06/10 08:59:06;;;;;;;0.20;0.20;;;19.80;99.90;;;;;;4823745;29;20053;-78
2023/06/10 09:01:32;;;;;;;0.20;0.20;;;19.80;99.90;;;;;;4838831;29;20268;-78
2023/06/10 09:03:59;;;;;;;0.22;0.22;;;19.90;99.90;;;;;;4858625;29;20041;-78
2023/06/10 09:06:25;;;;;;;0.20;0.20;;;19.80;99.90;;;;;;4860446;29;20474;-79
2023/06/10 09:08:52;;;;;;;0.20;0.20;;;20.00;99.90;;;;;;4843556;29;20413;-78
2023/06/10 09:11:18;;;;;;;0.20;0.20;;;20.00;99.90;;;;;;4842787;29;20049;-78
2023/06/10 09:13:43;;;;;;;0.20;0.20;;;20.10;99.80;;;;;;4860755;29;20049;-78
2023/06/10 09:16:11;;;;;;;0.20;0.20;;;20.10;99.80;;;;;;4842803;29;20142;-78
2023/06/10 09:18:37;;;;;;;0.20;0.20;;;20.20;99.80;;;;;;4859181;29;20520;-77
2023/06/10 09:21:03;;;;;;;0.10;0.10;;;20.20;99.80;;;;;;4842077;29;20057;-77
2023/06/10 09:23:29;;;;;;;0.20;0.20;;;20.20;99.70;;;;;;4838989;29;20053;-78
2023/06/10 09:25:59;;;;;;;0.20;0.20;;;20.30;99.60;;;;;;4860046;29;20052;-77
2023/06/10 09:28:25;;;;;;;0.20;0.20;;;20.30;99.60;;;;;;4843349;29;20129;-78
2023/06/10 09:31:08;;;;;;;0.20;0.20;;;20.40;99.50;;;;;;4859262;29;20065;-78
2023/06/10 09:33:37;;;;;;;0.20;0.20;;;20.40;99.40;;;;;;4842206;29;20056;-78
2023/06/10 09:36:03;;;;;;;0.20;0.20;;;20.50;99.20;;;;;;4858582;29;20418;-80
2023/06/10 09:38:34;;;;;;;0.20;0.20;;;20.50;99.20;;;;;;4860367;29;20049;-90
2023/06/10 09:41:03;;;;;;;0.20;0.20;;;20.60;99.00;;;;;;4861899;29;20101;-85
2023/06/10 09:43:43;;;;;;;0.20;0.20;;;20.60;99.10;;;;;;4850629;29;20413;-89
2023/06/10 09:46:16;;;;;;;0.20;0.20;;;20.70;98.90;;;;;;4856848;29;20053;-87
2023/06/10 09:48:43;;;;;;;0.20;0.20;;;20.70;99.00;;;;;;4870365;29;20092;-88
2023/06/10 09:51:10;;;;;;;0.20;0.20;;;20.80;98.90;;;;;;4872437;29;20309;-90
2023/06/10 09:53:36;;;;;;;0.20;0.20;;;20.80;98.70;;;;;;4854378;29;20057;-91
2023/06/10 09:56:02;;;;;;;0.30;0.30;;;20.90;98.70;;;;;;4859877;29;20057;-88
2023/06/10 09:58:39;;;;;;;0.20;0.20;;;20.90;98.50;;;;;;4844953;29;20053;-90
2023/06/10 10:01:15;;;;;;;0.20;0.20;;;20.90;98.40;;;;;;4844367;29;20136;-87
2023/06/10 10:03:48;;;;;;;0.20;0.20;;;21.10;98.50;;;;;;4852067;29;20499;-87
2023/06/10 10:06:15;;;;;;;0.20;0.20;;;21.10;98.70;;;;;;4857784;29;20502;-87
2023/06/10 10:08:41;;;;;;;0.20;0.20;;;21.20;98.50;;;;;;4843727;29;20088;-87
2023/06/10 10:11:06;;;;;;;0.20;0.20;;;21.20;98.30;;;;;;4843327;29;20119;-86
2023/06/10 10:13:35;;;;;;;0.20;0.20;;;21.30;98.10;;;;;;4858490;29;20120;-91
2023/06/10 10:16:14;;;;;;;0.20;0.20;;;21.30;98.00;;;;;;4856829;29;20046;-82
2023/06/10 10:18:45;;;;;;;0.20;0.20;;;21.40;98.00;;;;;;4839399;29;20049;-88
2023/06/10 10:21:17;;;;;;;0.30;0.30;;;21.40;97.70;;;;;;4848188;29;21453;-86
2023/06/10 10:24:05;;;;;;;0.20;0.20;;;21.40;97.60;;;;;;4862798;29;20300;-94
2023/06/10 10:26:32;;;;;;;0.20;0.20;;;21.50;97.50;;;;;;4840975;29;20079;-87
2023/06/10 10:28:57;;;;;;;0.20;0.20;;;21.50;97.40;;;;;;4863704;29;20289;-89
2023/06/10 10:31:25;;;;;;;0.20;0.20;;;21.60;97.30;;;;;;4844313;29;20128;-93
2023/06/10 10:34:04;;;;;;;0.20;0.20;;;21.70;97.00;;;;;;4840496;29;20049;-96
2023/06/10 10:36:31;;;;;;;0.20;0.20;;;21.70;97.00;;;;;;4826611;29;20054;-83
2023/06/10 10:38:58;;;;;;;0.30;0.30;;;21.70;97.10;;;;;;4851703;29;20413;-84
2023/06/10 10:41:26;;;;;;;0.20;0.20;;;21.80;97.20;;;;;;4837058;29;20041;-83
2023/06/10 10:43:53;;;;;;;0.20;0.20;;;21.90;97.10;;;;;;4861504;29;20128;-84
2023/06/10 10:46:18;;;;;;;0.20;0.20;;;21.90;97.10;;;;;;4837972;29;20490;-85
2023/06/10 10:48:45;;;;;;;0.20;0.20;;;22.00;96.90;;;;;;4836516;29;20075;-85
2023/06/10 10:51:11;;;;;;;0.20;0.20;;;22.10;96.80;;;;;;4854032;29;20060;-86
2023/06/10 10:53:38;;;;;;;0.20;0.20;;;22.10;96.80;;;;;;4858030;29;20057;-87
2023/06/10 10:56:05;;;;;;;0.20;0.20;;;22.20;96.70;;;;;;4855564;29;20045;-86
2023/06/10 10:58:31;;;;;;;0.20;0.20;;;22.20;96.70;;;;;;4840605;29;20049;-86
2023/06/10 11:00:57;;;;;;;0.20;0.20;;;22.30;96.50;;;;;;4826965;29;20407;-85
2023/06/10 11:03:30;;;;;;;0.20;0.20;;;22.40;96.50;;;;;;4837131;29;20045;-85
2023/06/10 11:05:57;;;;;;;0.20;0.20;;;22.50;96.30;;;;;;4841053;29;20045;-86
2023/06/10 11:08:32;;;;;;;0.20;0.20;;;22.50;96.00;;;;;;4842414;29;20045;-85
2023/06/10 11:10:57;;;;;;;0.20;0.20;;;22.60;95.90;;;;;;4837953;29;20454;-86
2023/06/10 11:13:25;;;;;;;0.20;0.20;;;22.60;95.70;;;;;;4838272;29;20037;-86
2023/06/10 11:15:51;;;;;;;0.40;0.40;;;22.70;95.50;;;;;;4836043;29;20046;-86
2023/06/10 11:18:25;;;;;;;0.20;0.20;;;22.80;95.60;;;;;;4854449;29;20449;-85
2023/06/10 11:20:56;;;;;;;0.20;0.20;;;22.80;95.40;;;;;;4840645;29;20045;-85
2023/06/10 11:23:28;;;;;;;0.20;0.20;;;22.90;95.30;;;;;;4853491;29;20098;-86
2023/06/10 11:26:27;;;;;;;0.20;0.20;;;23.00;95.10;;;;;;4852351;29;20053;-86
2023/06/10 11:28:53;;;;;;;0.20;0.20;;;23.10;94.70;;;;;;4826588;29;20096;-85
2023/06/10 11:31:23;;;;;;;0.20;0.20;;;23.20;94.60;;;;;;4836609;29;20057;-84
2023/06/10 11:33:58;;;;;;;0.25;0.25;;;23.30;94.50;;;;;;4855623;29;20242;-86
2023/06/10 11:36:24;;;;;;;0.20;0.20;;;23.40;94.60;;;;;;4838819;29;20469;-87
2023/06/10 11:38:55;;;;;;;0.20;0.20;;;23.50;94.60;;;;;;4843074;29;20053;-87
2023/06/10 11:41:21;;;;;;;0.20;0.20;;;23.60;94.70;;;;;;4839603;29;20409;-82
2023/06/10 11:43:47;;;;;;;0.20;0.20;;;23.70;94.50;;;;;;4836985;29;20160;-85
2023/06/10 11:46:14;;;;;;;0.20;0.20;;;23.80;94.40;;;;;;4835150;29;20041;-83
2023/06/10 11:48:48;;;;;;;0.20;0.20;;;23.80;94.50;;;;;;4836081;29;20053;-85
2023/06/10 11:51:13;;;;;;;0.20;0.20;;;23.90;94.50;;;;;;4836487;29;20045;-86
2023/06/10 11:53:39;;;;;;;0.20;0.20;;;24.00;94.20;;;;;;4839093;29;20100;-84
2023/06/10 11:56:05;;;;;;;0.20;0.20;;;24.10;94.10;;;;;;4839700;29;20132;-89
2023/06/10 11:58:30;;;;;;;0.20;0.20;;;24.20;94.10;;;;;;4857754;29;20393;-85
2023/06/10 12:00:57;;;;;;;0.20;0.20;;;24.30;94.00;;;;;;4840027;29;20053;-96
2023/06/10 12:03:24;;;;;;;0.20;0.20;;;24.30;93.80;;;;;;4844401;29;20077;-87
2023/06/10 12:06:06;;;;;;;0.20;0.20;;;24.40;93.80;;;;;;4839578;29;20046;-85
2023/06/10 12:08:33;;;;;;;0.20;0.20;;;24.50;93.90;;;;;;4841664;29;20178;-87
2023/06/10 12:10:59;;;;;;;0.20;0.20;;;24.60;93.60;;;;;;4840676;29;20398;-86
2023/06/10 12:13:27;;;;;;;0.20;0.20;;;24.70;93.60;;;;;;4857399;29;20057;-88
2023/06/10 12:15:52;;;;;;;0.20;0.20;;;24.70;93.30;;;;;;4856596;29;20128;-85
2023/06/10 12:18:22;;;;;;;0.20;0.20;;;24.80;93.20;;;;;;4854180;29;20128;-87
2023/06/10 12:20:50;;;;;;;0.20;0.20;;;24.90;93.10;;;;;;4840250;29;20042;-86
2023/06/10 12:23:16;;;;;;;0.20;0.20;;;24.90;93.10;;;;;;4835668;29;20069;-85
2023/06/10 12:25:55;;;;;;;0.20;0.20;;;25.00;93.40;;;;;;4853210;29;20439;-87
2023/06/10 12:28:23;;;;;;;0.20;0.20;;;25.10;92.80;;;;;;4831484;29;20059;-87
2023/06/10 12:30:48;;;;;;;0.20;0.20;;;25.20;92.80;;;;;;4852692;29;20049;-86
2023/06/10 12:33:21;;;;;;;0.20;0.20;;;25.30;92.80;;;;;;4854516;29;20186;-86
2023/06/10 12:35:51;;;;;;;0.20;0.20;;;25.40;92.80;;;;;;4856715;29;20520;-86
2023/06/10 12:38:26;;;;;;;0.30;0.30;;;25.50;92.70;;;;;;4829383;29;20057;-86
2023/06/10 12:40:53;;;;;;;0.20;0.20;;;25.50;92.80;;;;;;4831061;29;20070;-85
2023/06/10 12:43:25;;;;;;;0.20;0.20;;;25.60;92.50;;;;;;4831627;29;20074;-85
2023/06/10 12:45:51;;;;;;;0.20;0.20;;;25.70;92.70;;;;;;4829192;29;20061;-86
2023/06/10 12:48:24;;;;;;;0.20;0.20;;;25.80;92.70;;;;;;4845659;29;20042;-86
2023/06/10 12:50:58;;;;;;;0.20;0.20;;;25.90;92.60;;;;;;4846917;29;20049;-89
2023/06/10 12:53:26;;;;;;;0.20;0.20;;;26.00;92.50;;;;;;4831314;29;20053;-86